Time;durP1;ratioP1;P1;durP2;ratioP2;P2;SDS_P1;SDS_P2;PMS_P1;PMS_P2;Temp;Humidity;BMP_temperature;BMP_pressure;BME280_temperature;BME280_humidity;BME280_pressure;Samples;Min_cycle;Max_cycle;Signal;HPM_P1;HPM_P2
2022/02/02 00:00:59;;;;;;;23.83;11.18;;;;;;;;;;2113454;28;20048;-46
2022/02/02 00:02:08;;;;;;;;;;;;;;;;;;2107714;28;20053;-45
2022/02/02 00:03:10;;;;;;;25.40;10.18;;;;;;;;;;2107499;28;19920;-53
2022/02/02 00:04:14;;;;;;;;;;;;;;;;;;2107040;28;20135;-53
2022/02/02 00:05:22;;;;;;;20.58;9.75;;;;;;;;;;2109375;28;20224;-53
2022/02/02 00:06:29;;;;;;;21.17;10.52;;;;;;;;;;2106715;28;20047;-54
2022/02/02 00:07:36;;;;;;;25.42;12.60;;;;;;;;;;2108530;28;20079;-53
2022/02/02 00:08:49;;;;;;;25.77;12.27;;;;;;;;;;2112456;28;20130;-53
2022/02/02 00:09:55;;;;;;;26.58;10.35;;;;;;;;;;2114949;28;20095;-53
2022/02/02 00:12:18;;;;;;;29.38;13.40;;;;;;;;;;2064394;28;20226;-54
2022/02/02 00:13:33;;;;;;;37.33;16.40;;;;;;;;;;2099531;28;20170;-51
2022/02/02 00:14:49;;;;;;;36.33;16.10;;;;;;;;;;2106438;28;20051;-51
2022/02/02 00:15:58;;;;;;;39.97;15.48;;;;;;;;;;2106104;28;20052;-53
2022/02/02 00:17:03;;;;;;;34.40;15.85;;;;;;;;;;2111248;28;20134;-53
2022/02/02 00:18:24;;;;;;;22.58;11.40;;;;;;;;;;2115055;28;20050;-51
2022/02/02 00:19:37;;;;;;;25.25;12.45;;;;;;;;;;2112112;28;20121;-51
2022/02/02 00:20:50;;;;;;;20.80;10.48;;;;;;;;;;2114927;28;20071;-51
2022/02/02 00:21:56;;;;;;;29.73;10.43;;;;;;;;;;2112574;28;20479;-51
2022/02/02 00:23:01;;;;;;;15.50;7.82;;;;;;;;;;2112606;28;20096;-53
2022/02/02 00:24:07;;;;;;;21.13;9.85;;;;;;;;;;2114976;28;20130;-52
2022/02/02 00:25:14;;;;;;;19.63;9.05;;;;;;;;;;2111598;28;20050;-53
2022/02/02 00:26:20;;;;;;;18.55;7.63;;;;;;;;;;2114809;28;20476;-53
2022/02/02 00:27:23;;;;;;;14.93;7.50;;;;;;;;;;2115253;28;20130;-54
2022/02/02 00:28:31;;;;;;;17.83;7.38;;;;;;;;;;2107345;28;20052;-51
2022/02/02 00:29:36;;;;;;;17.17;7.20;;;;;;;;;;2106451;28;20471;-52
2022/02/02 00:30:39;;;;;;;14.18;6.68;;;;;;;;;;2110528;28;20071;-52
2022/02/02 00:31:44;;;;;;;16.23;7.93;;;;;;;;;;2114621;28;20519;-50
2022/02/02 00:33:02;;;;;;;21.58;10.40;;;;;;;;;;2114971;28;20043;-53
2022/02/02 00:34:06;;;;;;;17.60;8.15;;;;;;;;;;2111615;28;20059;-50
2022/02/02 00:35:09;;;;;;;17.35;8.27;;;;;;;;;;2114731;28;20507;-52
2022/02/02 00:36:14;;;;;;;15.10;7.72;;;;;;;;;;2113976;28;20585;-53
2022/02/02 00:37:16;;;;;;;15.20;7.60;;;;;;;;;;2107377;28;20044;-52
2022/02/02 00:38:17;;;;;;;24.50;8.35;;;;;;;;;;2106460;28;20119;-53
2022/02/02 00:39:18;;;;;;;16.63;7.28;;;;;;;;;;2110264;28;20044;-51
2022/02/02 00:40:20;;;;;;;16.75;6.95;;;;;;;;;;2114811;28;20591;-54
2022/02/02 00:41:21;;;;;;;14.15;7.07;;;;;;;;;;2114205;28;20126;-54
2022/02/02 00:42:28;;;;;;;17.15;6.43;;;;;;;;;;2113005;28;20056;-54
2022/02/02 00:43:30;;;;;;;15.52;7.00;;;;;;;;;;2114694;28;20078;-53
2022/02/02 00:44:54;;;;;;;14.85;6.40;;;;;;;;;;2110522;28;20554;-52
2022/02/02 00:45:56;;;;;;;15.48;6.50;;;;;;;;;;2106315;28;20048;-52
2022/02/02 00:46:57;;;;;;;15.07;6.00;;;;;;;;;;2106032;28;20577;-51
2022/02/02 00:48:01;;;;;;;16.67;6.97;;;;;;;;;;2112002;28;20040;-53
2022/02/02 00:49:04;;;;;;;12.55;6.28;;;;;;;;;;2114735;28;20085;-50
2022/02/02 00:50:06;;;;;;;12.73;6.35;;;;;;;;;;2114700;28;20130;-51
2022/02/02 00:51:07;;;;;;;14.73;6.50;;;;;;;;;;2111909;28;20462;-51
2022/02/02 00:52:08;;;;;;;23.30;8.85;;;;;;;;;;2114846;28;20614;-50
2022/02/02 00:53:10;;;;;;;14.88;6.28;;;;;;;;;;2113011;28;20088;-53
2022/02/02 00:54:12;;;;;;;12.27;5.68;;;;;;;;;;2113494;28;20079;-52
2022/02/02 00:55:14;;;;;;;14.35;5.88;;;;;;;;;;2114745;28;20080;-53
2022/02/02 00:56:15;;;;;;;13.77;6.10;;;;;;;;;;2109911;28;20079;-53
2022/02/02 00:57:16;;;;;;;18.20;6.60;;;;;;;;;;2106415;28;20139;-51
2022/02/02 00:58:18;;;;;;;19.60;7.30;;;;;;;;;;2106276;28;20564;-51
2022/02/02 00:59:19;;;;;;;17.60;6.68;;;;;;;;;;2111339;28;20119;-52
2022/02/02 01:00:20;;;;;;;22.15;6.63;;;;;;;;;;2114769;28;20126;-52
2022/02/02 01:01:21;;;;;;;20.38;6.82;;;;;;;;;;2111718;28;20075;-51
2022/02/02 01:02:22;;;;;;;17.23;6.28;;;;;;;;;;2111398;28;20404;-54
2022/02/02 01:03:24;;;;;;;14.57;6.20;;;;;;;;;;2114780;28;20062;-54
2022/02/02 01:04:26;;;;;;;17.25;7.20;;;;;;;;;;2112897;28;20051;-53
2022/02/02 01:05:27;;;;;;;13.00;6.00;;;;;;;;;;2112478;28;20255;-48
2022/02/02 01:06:31;;;;;;;17.83;7.18;;;;;;;;;;2114617;28;20086;-45
2022/02/02 01:07:47;;;;;;;16.00;7.15;;;;;;;;;;2111620;28;20126;-45
2022/02/02 01:09:08;;;;;;;19.85;7.20;;;;;;;;;;2106229;28;20068;-44
2022/02/02 01:10:15;;;;;;;13.15;5.68;;;;;;;;;;2107074;28;20048;-45
2022/02/02 01:11:43;;;;;;;12.18;5.78;;;;;;;;;;2106855;28;20193;-45
2022/02/02 01:12:49;;;;;;;13.60;6.00;;;;;;;;;;2108226;28;20044;-52
2022/02/02 01:19:25;;;;;;;13.63;6.00;;;;;;;;;;2111397;28;20074;-50
2022/02/02 01:20:36;;;;;;;14.82;5.38;;;;;;;;;;2114582;28;20089;-55
2022/02/02 01:21:55;;;;;;;12.75;5.45;;;;;;;;;;2109214;28;20131;-53
2022/02/02 01:28:24;;;;;;;14.38;5.88;;;;;;;;;;2114341;28;20130;-51
2022/02/02 01:29:25;;;;;;;10.15;5.10;;;;;;;;;;2112017;28;20492;-54
2022/02/02 01:30:27;;;;;;;13.33;5.50;;;;;;;;;;2111163;28;20086;-52
2022/02/02 01:31:28;;;;;;;13.82;5.20;;;;;;;;;;2114481;28;20371;-51
2022/02/02 01:32:29;;;;;;;13.80;5.97;;;;;;;;;;2112888;28;20054;-50
2022/02/02 01:33:30;;;;;;;12.65;5.78;;;;;;;;;;2113016;28;20130;-53
2022/02/02 01:34:31;;;;;;;15.27;6.05;;;;;;;;;;2114445;28;20176;-51
2022/02/02 01:35:32;;;;;;;10.95;5.43;;;;;;;;;;2111927;28;20171;-54
2022/02/02 01:36:38;;;;;;;11.32;5.32;;;;;;;;;;2113901;28;20050;-51
2022/02/02 01:37:39;;;;;;;14.80;5.88;;;;;;;;;;2114549;28;20123;-50
2022/02/02 01:38:42;;;;;;;10.90;5.70;;;;;;;;;;2111191;28;20443;-53
2022/02/02 01:39:44;;;;;;;11.88;5.93;;;;;;;;;;2114344;28;20288;-53
2022/02/02 01:40:49;;;;;;;;;;;;;;;;;;2112556;28;20079;-51
2022/02/02 01:41:50;;;;;;;11.85;5.63;;;;;;;;;;2111503;28;19954;-51
2022/02/02 01:42:57;;;;;;;10.50;5.13;;;;;;;;;;2114571;28;20051;-51
2022/02/02 01:44:07;;;;;;;11.18;4.57;;;;;;;;;;2109870;28;20044;-53
2022/02/02 01:45:15;;;;;;;15.05;6.28;;;;;;;;;;2106334;28;20146;-46
2022/02/02 01:46:19;;;;;;;14.43;5.85;;;;;;;;;;2105824;28;20135;-45
2022/02/02 01:47:22;;;;;;;16.70;5.97;;;;;;;;;;2110960;28;20126;-47
2022/02/02 01:48:31;;;;;;;12.77;5.93;;;;;;;;;;2114258;28;20101;-45
2022/02/02 01:51:03;;;;;;;17.80;6.53;;;;;;;;;;2105853;28;20514;-47
2022/02/02 01:52:26;;;;;;;13.20;7.03;;;;;;;;;;2108122;28;20136;-45
2022/02/02 01:53:39;;;;;;;;;;;;;;;;;;2113485;28;20097;-46
2022/02/02 01:54:54;;;;;;;13.48;6.32;;;;;;;;;;2114514;28;20008;-45
2022/02/02 01:55:55;;;;;;;14.38;5.88;;;;;;;;;;2106786;28;20075;-46
2022/02/02 01:56:56;;;;;;;15.63;6.43;;;;;;;;;;2105998;28;20147;-46
2022/02/02 01:58:09;;;;;;;17.80;5.93;;;;;;;;;;2108880;28;20062;-46
2022/02/02 01:59:20;;;;;;;11.52;6.03;;;;;;;;;;2105126;28;20185;-45
2022/02/02 02:00:21;;;;;;;15.73;6.40;;;;;;;;;;2105976;28;20075;-43
2022/02/02 02:01:22;;;;;;;14.38;5.88;;;;;;;;;;2109580;28;20468;-45
2022/02/02 02:02:26;;;;;;;13.75;5.68;;;;;;;;;;2105974;28;20074;-45
2022/02/02 02:03:27;;;;;;;14.95;5.72;;;;;;;;;;2105325;28;20131;-44
2022/02/02 02:04:28;;;;;;;18.70;5.60;;;;;;;;;;2111299;28;20090;-47
2022/02/02 02:05:29;;;;;;;13.27;5.57;;;;;;;;;;2114225;28;20412;-44
2022/02/02 02:06:30;;;;;;;14.15;6.20;;;;;;;;;;2112214;28;20043;-45
2022/02/02 02:07:32;;;;;;;12.38;5.47;;;;;;;;;;2112077;28;20044;-45
2022/02/02 02:08:35;;;;;;;13.98;5.95;;;;;;;;;;2114103;28;20134;-45
2022/02/02 02:09:36;;;;;;;12.20;5.35;;;;;;;;;;2109974;28;20094;-45
2022/02/02 02:10:37;;;;;;;14.80;5.60;;;;;;;;;;2105791;28;20504;-46
2022/02/02 02:11:43;;;;;;;13.60;5.35;;;;;;;;;;2105789;28;20086;-45
2022/02/02 02:12:50;;;;;;;10.75;5.35;;;;;;;;;;2110974;28;20118;-45
2022/02/02 02:15:29;;;;;;;10.70;4.88;;;;;;;;;;2088295;28;20091;-44
2022/02/02 02:16:30;;;;;;;14.85;5.68;;;;;;;;;;2088158;28;20207;-45
2022/02/02 02:17:31;;;;;;;12.10;4.32;;;;;;;;;;2088612;28;20106;-46
2022/02/02 02:18:32;;;;;;;14.55;5.10;;;;;;;;;;2087687;28;20076;-44
2022/02/02 02:19:36;;;;;;;13.17;5.07;;;;;;;;;;2088139;28;20445;-44
2022/02/02 02:20:38;;;;;;;24.48;5.40;;;;;;;;;;2088567;28;20072;-44
2022/02/02 02:21:39;;;;;;;;;;;;;;;;;;2111669;28;20495;-45
2022/02/02 02:22:42;;;;;;;14.93;6.28;;;;;;;;;;2114156;28;19920;-45
2022/02/02 02:23:45;;;;;;;13.07;5.05;;;;;;;;;;2111577;28;20127;-45
2022/02/02 02:24:46;;;;;;;10.02;5.20;;;;;;;;;;2105573;28;20052;-46
2022/02/02 02:25:51;;;;;;;11.45;5.60;;;;;;;;;;2105761;28;20048;-45
2022/02/02 02:26:51;;;;;;;15.32;6.35;;;;;;;;;;2109352;28;20178;-48
2022/02/02 02:27:54;;;;;;;11.70;5.10;;;;;;;;;;2114066;28;20549;-45
2022/02/02 02:29:30;;;;;;;14.38;5.63;;;;;;;;;;2114497;28;20464;-45
2022/02/02 02:30:43;;;;;;;11.30;4.45;;;;;;;;;;2105894;28;20097;-45
2022/02/02 02:31:55;;;;;;;17.85;5.15;;;;;;;;;;2107855;28;20072;-45
2022/02/02 02:33:27;;;;;;;9.60;5.00;;;;;;;;;;2106553;28;20486;-44
2022/02/02 02:34:41;;;;;;;11.40;5.18;;;;;;;;;;2105501;28;20048;-45
2022/02/02 02:36:18;;;;;;;12.38;5.40;;;;;;;;;;2106463;28;20040;-53
2022/02/02 02:37:34;;;;;;;16.38;6.15;;;;;;;;;;2105576;28;20044;-53
2022/02/02 02:38:54;;;;;;;13.98;5.40;;;;;;;;;;2111727;28;20122;-52
2022/02/02 02:40:03;;;;;;;15.52;5.57;;;;;;;;;;2114085;28;20067;-54
2022/02/02 02:55:52;;;;;;;9.02;4.00;;;;;;;;;;2111688;28;20036;-45
2022/02/02 02:56:52;;;;;;;12.77;5.22;;;;;;;;;;2114124;28;20127;-45
2022/02/02 02:58:02;;;;;;;15.57;5.20;;;;;;;;;;2111086;28;20541;-45
2022/02/02 02:59:06;;;;;;;13.18;5.40;;;;;;;;;;2114191;28;20131;-44
2022/02/02 03:00:24;;;;;;;14.65;5.68;;;;;;;;;;2114133;28;20079;-46
2022/02/02 03:01:35;;;;;;;19.60;5.80;;;;;;;;;;2106708;28;20470;-45
2022/02/02 03:03:16;;;;;;;10.93;4.30;;;;;;;;;;2105594;28;20078;-46
2022/02/02 03:29:56;;;;;;;12.57;5.25;;;;;;;;;;2080188;28;20124;-54
2022/02/02 03:31:12;;;;;;;11.02;5.63;;;;;;;;;;2081544;28;20129;-52
2022/02/02 03:32:38;;;;;;;18.88;7.18;;;;;;;;;;2079702;28;20064;-50
2022/02/02 03:35:08;;;;;;;14.57;6.55;;;;;;;;;;2106920;28;20044;-53
2022/02/02 03:51:10;;;;;;;14.65;6.97;;;;;;;;;;2084249;28;20132;-51
2022/02/02 03:54:08;;;;;;;16.85;6.38;;;;;;;;;;2085698;28;20128;-45
2022/02/02 03:55:22;;;;;;;20.23;7.80;;;;;;;;;;2106709;28;20170;-46
2022/02/02 03:56:36;;;;;;;15.75;6.10;;;;;;;;;;2109886;28;20497;-46
2022/02/02 03:57:52;;;;;;;20.92;7.28;;;;;;;;;;2106698;28;20075;-44
2022/02/02 03:59:09;;;;;;;17.70;5.95;;;;;;;;;;2109381;28;20064;-44
2022/02/02 04:00:23;;;;;;;14.02;6.15;;;;;;;;;;2106682;28;20386;-45
2022/02/02 04:01:46;;;;;;;15.13;6.00;;;;;;;;;;2105833;28;20064;-45
2022/02/02 04:03:04;;;;;;;11.95;5.38;;;;;;;;;;2106372;28;20505;-44
2022/02/02 04:04:18;;;;;;;16.30;6.30;;;;;;;;;;2107627;28;20048;-46
2022/02/02 04:05:36;;;;;;;17.02;6.00;;;;;;;;;;2107623;28;20123;-45
2022/02/02 04:06:44;;;;;;;17.90;7.22;;;;;;;;;;2106635;28;20205;-44
2022/02/02 04:07:49;;;;;;;20.42;7.47;;;;;;;;;;2111179;28;20080;-45
2022/02/02 04:08:50;;;;;;;20.70;7.72;;;;;;;;;;2114926;28;20571;-46
2022/02/02 04:09:51;;;;;;;22.33;9.27;;;;;;;;;;2115503;28;20075;-46
2022/02/02 04:10:54;;;;;;;19.73;7.70;;;;;;;;;;2111429;28;20446;-46
2022/02/02 04:12:04;;;;;;;19.42;8.77;;;;;;;;;;2115104;28;20122;-44
2022/02/02 04:13:12;;;;;;;21.60;9.27;;;;;;;;;;2111719;28;20044;-45
2022/02/02 04:17:24;;;;;;;31.80;13.23;;;;;;;;;;2113307;28;20039;-46
2022/02/02 04:38:26;;;;;;;13.05;5.30;;;;;;;;;;2106867;28;20568;-54
2022/02/02 04:51:49;;;;;;;16.80;6.22;;;;;;;;;;2114787;28;20435;-53
2022/02/02 04:54:29;;;;;;;13.77;5.85;;;;;;;;;;2080247;28;20079;-53
2022/02/02 04:55:32;;;;;;;15.07;5.40;;;;;;;;;;2112848;28;20067;-54
2022/02/02 04:57:09;;;;;;;13.45;4.95;;;;;;;;;;2113309;28;20485;-54
2022/02/02 04:58:17;;;;;;;15.70;5.72;;;;;;;;;;2114198;28;20135;-54
2022/02/02 04:59:28;;;;;;;13.20;4.20;;;;;;;;;;2112469;28;20595;-54
2022/02/02 05:05:46;;;;;;;12.88;5.28;;;;;;;;;;2111946;28;20409;-52
2022/02/02 05:06:51;;;;;;;9.88;5.15;;;;;;;;;;2111646;28;20471;-51
2022/02/02 05:08:00;;;;;;;11.85;4.60;;;;;;;;;;2113140;28;20405;-51
2022/02/02 05:09:14;;;;;;;8.55;4.70;;;;;;;;;;2114560;28;20078;-53
2022/02/02 05:10:24;;;;;;;10.70;4.75;;;;;;;;;;2109900;28;20044;-54
2022/02/02 05:11:46;;;;;;;13.05;5.53;;;;;;;;;;2114520;28;20123;-53
2022/02/02 05:15:14;;;;;;;10.10;4.68;;;;;;;;;;2106254;28;20536;-53
2022/02/02 05:16:10;;;;;;;11.43;4.88;;;;;;;;;;2108043;28;20044;-51
2022/02/02 05:17:23;;;;;;;19.80;5.63;;;;;;;;;;2114764;28;20126;-51
2022/02/02 05:18:57;;;;;;;15.13;4.95;;;;;;;;;;2111594;28;20047;-50
2022/02/02 05:23:26;;;;;;;14.63;5.50;;;;;;;;;;2114580;28;20155;-52
2022/02/02 05:49:40;;;;;;;16.85;7.15;;;;;;;;;;2107029;28;20079;-45
2022/02/02 05:51:00;;;;;;;13.75;6.47;;;;;;;;;;2105993;28;20051;-45
2022/02/02 05:52:01;;;;;;;10.68;4.65;;;;;;;;;;2106469;28;20066;-44
2022/02/02 05:53:03;;;;;;;10.38;4.72;;;;;;;;;;2112417;28;20119;-45
2022/02/02 05:54:06;;;;;;;15.43;5.70;;;;;;;;;;2114260;28;20079;-45
2022/02/02 05:55:07;;;;;;;14.65;5.47;;;;;;;;;;2110767;28;20138;-45
2022/02/02 05:56:08;;;;;;;17.08;6.07;;;;;;;;;;2113521;28;20127;-45
2022/02/02 05:57:14;;;;;;;17.25;7.35;;;;;;;;;;2114433;28;20078;-45
2022/02/02 05:58:17;;;;;;;12.88;5.82;;;;;;;;;;2111148;28;20573;-45
2022/02/02 05:59:19;;;;;;;11.77;5.38;;;;;;;;;;2114417;28;20074;-45
2022/02/02 06:00:20;;;;;;;13.63;6.10;;;;;;;;;;2115004;28;20480;-46
2022/02/02 06:01:24;;;;;;;15.00;5.65;;;;;;;;;;2106823;28;20044;-46
2022/02/02 06:02:32;;;;;;;13.40;5.68;;;;;;;;;;2106053;28;20059;-46
2022/02/02 06:03:58;;;;;;;13.73;6.43;;;;;;;;;;2109454;28;20400;-48
2022/02/02 06:05:03;;;;;;;11.50;5.65;;;;;;;;;;2098557;28;20143;-47
2022/02/02 06:06:05;;;;;;;12.82;6.10;;;;;;;;;;2111166;28;20081;-45
2022/02/02 06:07:07;;;;;;;13.35;6.63;;;;;;;;;;2112892;28;20460;-47
2022/02/02 06:08:08;;;;;;;13.35;6.43;;;;;;;;;;2114310;28;20134;-46
2022/02/02 06:09:10;;;;;;;15.27;6.03;;;;;;;;;;2111003;28;20052;-46
2022/02/02 06:10:14;;;;;;;13.75;5.95;;;;;;;;;;2114351;28;20048;-45
2022/02/02 06:11:17;;;;;;;14.10;6.13;;;;;;;;;;2113667;28;20508;-45
2022/02/02 06:12:20;;;;;;;14.57;5.78;;;;;;;;;;2111294;28;20047;-46
2022/02/02 06:13:21;;;;;;;15.98;6.47;;;;;;;;;;2114329;28;20133;-45
2022/02/02 06:14:22;;;;;;;;;;;;;;;;;;2114272;28;20561;-46
2022/02/02 06:15:24;;;;;;;15.02;5.75;;;;;;;;;;2111470;28;19970;-48
2022/02/02 06:16:25;;;;;;;15.63;6.95;;;;;;;;;;2114132;28;20178;-46
2022/02/02 06:17:27;;;;;;;13.85;7.15;;;;;;;;;;2110426;28;20075;-45
2022/02/02 06:18:29;;;;;;;12.98;5.78;;;;;;;;;;2106660;28;20075;-46
2022/02/02 06:19:30;;;;;;;14.80;6.65;;;;;;;;;;2105849;28;20075;-45
2022/02/02 06:20:33;;;;;;;14.75;5.95;;;;;;;;;;2108823;28;20753;-47
2022/02/02 06:21:35;;;;;;;12.30;6.10;;;;;;;;;;2114192;28;20579;-46
2022/02/02 06:22:38;;;;;;;16.75;6.05;;;;;;;;;;2113824;28;20071;-45
2022/02/02 06:23:42;;;;;;;18.77;6.00;;;;;;;;;;2110073;28;20139;-46
2022/02/02 06:24:46;;;;;;;16.73;6.00;;;;;;;;;;2106039;28;20090;-50
2022/02/02 06:25:48;;;;;;;14.20;6.68;;;;;;;;;;2108666;28;20047;-54
2022/02/02 06:26:49;;;;;;;14.93;6.40;;;;;;;;;;2112830;28;20073;-46
2022/02/02 06:27:55;;;;;;;14.43;6.28;;;;;;;;;;2112651;28;20047;-45
2022/02/02 06:28:58;;;;;;;15.60;6.60;;;;;;;;;;2108928;28;20047;-52
2022/02/02 06:30:00;;;;;;;13.65;6.22;;;;;;;;;;2105624;28;20051;-53
2022/02/02 06:31:01;;;;;;;;;;;;;;;;;;2106199;28;20075;-52
2022/02/02 06:32:24;;;;;;;11.27;4.90;;;;;;;;;;2111328;28;19926;-52
2022/02/02 06:33:27;;;;;;;14.55;5.03;;;;;;;;;;2114103;28;20083;-54
2022/02/02 06:34:31;;;;;;;12.73;5.30;;;;;;;;;;2111059;28;20155;-55
2022/02/02 06:35:33;;;;;;;13.70;5.63;;;;;;;;;;2113325;28;20432;-54
2022/02/02 06:36:36;;;;;;;12.77;5.82;;;;;;;;;;2113994;28;20216;-51
2022/02/02 06:37:38;;;;;;;11.25;6.25;;;;;;;;;;2108526;28;20047;-47
2022/02/02 06:38:39;;;;;;;14.27;6.93;;;;;;;;;;2114053;28;20071;-46
2022/02/02 06:39:40;;;;;;;15.30;7.88;;;;;;;;;;2113644;28;20478;-46
2022/02/02 06:40:44;;;;;;;16.95;6.72;;;;;;;;;;2110000;28;20059;-45
2022/02/02 06:41:44;;;;;;;14.18;6.40;;;;;;;;;;2114207;28;20126;-45
2022/02/02 06:42:46;;;;;;;20.13;7.70;;;;;;;;;;2114142;28;20583;-45
2022/02/02 06:43:48;;;;;;;13.05;6.22;;;;;;;;;;2106649;28;20113;-46
2022/02/02 06:44:50;;;;;;;15.80;6.72;;;;;;;;;;2105872;28;20293;-45
2022/02/02 06:45:51;;;;;;;18.35;6.82;;;;;;;;;;2108764;28;20544;-45
2022/02/02 06:46:52;;;;;;;14.65;6.07;;;;;;;;;;2114959;28;20127;-44
2022/02/02 06:47:54;;;;;;;14.00;7.07;;;;;;;;;;2115542;28;20047;-45
2022/02/02 06:48:55;;;;;;;11.60;5.88;;;;;;;;;;2113645;28;20096;-46
2022/02/02 06:50:06;;;;;;;11.38;5.35;;;;;;;;;;2115510;28;20051;-45
2022/02/02 06:51:14;;;;;;;14.57;6.28;;;;;;;;;;2115796;28;20542;-45
2022/02/02 06:52:19;;;;;;;16.00;5.07;;;;;;;;;;2107927;28;20113;-46
2022/02/02 06:53:26;;;;;;;14.07;5.70;;;;;;;;;;2107245;28;20048;-46
2022/02/02 06:54:44;;;;;;;16.27;6.57;;;;;;;;;;2107220;28;20071;-46
2022/02/02 06:56:02;;;;;;;15.15;6.55;;;;;;;;;;2107077;28;20131;-46
2022/02/02 06:57:10;;;;;;;12.75;5.35;;;;;;;;;;2109099;28;20075;-46
2022/02/02 06:58:19;;;;;;;13.35;6.05;;;;;;;;;;2107030;28;20084;-46
2022/02/02 06:59:33;;;;;;;11.70;5.65;;;;;;;;;;2107223;28;20503;-53
2022/02/02 07:00:42;;;;;;;12.15;5.68;;;;;;;;;;2111260;28;20071;-55
2022/02/02 07:01:51;;;;;;;12.25;5.18;;;;;;;;;;2107459;28;20044;-53
2022/02/02 07:03:03;;;;;;;15.02;5.63;;;;;;;;;;2107325;28;20132;-54
2022/02/02 07:04:16;;;;;;;14.98;6.13;;;;;;;;;;2107146;28;20560;-52
2022/02/02 07:05:28;;;;;;;13.15;5.60;;;;;;;;;;2109232;28;20072;-45
2022/02/02 07:06:42;;;;;;;14.77;6.05;;;;;;;;;;2107812;28;20559;-47
2022/02/02 07:07:58;;;;;;;14.25;6.45;;;;;;;;;;2107056;28;20079;-47
2022/02/02 07:09:15;;;;;;;11.65;5.20;;;;;;;;;;2111654;28;20138;-46
2022/02/02 07:10:24;;;;;;;17.70;6.28;;;;;;;;;;2115432;28;20131;-47
2022/02/02 07:11:32;;;;;;;15.23;5.57;;;;;;;;;;2111453;28;20309;-45
2022/02/02 07:12:50;;;;;;;12.85;5.75;;;;;;;;;;2106919;28;20182;-46
2022/02/02 07:14:03;;;;;;;13.30;6.15;;;;;;;;;;2110106;28;20072;-49
2022/02/02 07:15:19;;;;;;;15.35;6.85;;;;;;;;;;2113427;28;20067;-47
2022/02/02 07:16:36;;;;;;;11.73;6.13;;;;;;;;;;2115396;28;20039;-46
2022/02/02 07:17:45;;;;;;;14.35;6.55;;;;;;;;;;2113172;28;20327;-52
2022/02/02 07:19:04;;;;;;;17.73;7.22;;;;;;;;;;2115442;28;20095;-55
2022/02/02 07:20:13;;;;;;;12.20;6.35;;;;;;;;;;2112304;28;20158;-55
2022/02/02 07:21:26;;;;;;;18.33;7.55;;;;;;;;;;2115299;28;20055;-54
2022/02/02 07:22:58;;;;;;;;;;;;;;;;;;2114703;28;20047;-55
2022/02/02 07:24:16;;;;;;;15.15;6.15;;;;;;;;;;2106628;28;19956;-55
2022/02/02 07:25:34;;;;;;;16.20;6.85;;;;;;;;;;2106193;28;20040;-47
2022/02/02 07:27:06;;;;;;;17.10;6.30;;;;;;;;;;2106796;28;20126;-46
2022/02/02 07:28:11;;;;;;;14.88;6.75;;;;;;;;;;2108822;28;20547;-49
2022/02/02 07:29:20;;;;;;;18.25;7.07;;;;;;;;;;2107716;28;20051;-47
2022/02/02 07:30:29;;;;;;;18.98;7.75;;;;;;;;;;2106856;28;20181;-47
2022/02/02 07:31:41;;;;;;;15.88;6.93;;;;;;;;;;2112641;28;20123;-47
2022/02/02 07:32:48;;;;;;;18.60;8.20;;;;;;;;;;2115312;28;20078;-46
2022/02/02 07:33:51;;;;;;;17.83;8.55;;;;;;;;;;2112656;28;20043;-48
2022/02/02 07:35:00;;;;;;;19.77;7.57;;;;;;;;;;2112841;28;20389;-46
2022/02/02 07:36:07;;;;;;;17.08;7.28;;;;;;;;;;2115233;28;20078;-44
2022/02/02 07:37:12;;;;;;;19.05;7.47;;;;;;;;;;2111992;28;20476;-48
2022/02/02 07:38:14;;;;;;;16.42;6.78;;;;;;;;;;2115719;28;20081;-46
2022/02/02 07:39:15;;;;;;;;;;;;;;;;;;2115445;28;20081;-47
2022/02/02 07:40:17;;;;;;;11.73;5.78;;;;;;;;;;2107405;28;19927;-46
2022/02/02 07:41:24;;;;;;;14.38;5.80;;;;;;;;;;2106633;28;20596;-43
2022/02/02 07:42:26;;;;;;;12.35;6.28;;;;;;;;;;2108058;28;20044;-44
2022/02/02 07:43:29;;;;;;;15.40;6.45;;;;;;;;;;2113996;28;20093;-44
2022/02/02 07:44:34;;;;;;;18.05;7.40;;;;;;;;;;2115118;28;20051;-45
2022/02/02 07:45:36;;;;;;;13.88;6.90;;;;;;;;;;2112283;28;20040;-45
2022/02/02 07:46:37;;;;;;;12.68;6.60;;;;;;;;;;2106675;28;20524;-46
2022/02/02 07:47:39;;;;;;;17.17;7.32;;;;;;;;;;2108749;28;20639;-45
2022/02/02 07:48:41;;;;;;;24.63;7.53;;;;;;;;;;2112849;28;20475;-45
2022/02/02 07:49:45;;;;;;;16.02;7.40;;;;;;;;;;2115116;28;20588;-46
2022/02/02 07:50:47;;;;;;;23.95;8.13;;;;;;;;;;2112751;28;20134;-44
2022/02/02 07:51:50;;;;;;;15.85;6.80;;;;;;;;;;2114571;28;20572;-44
2022/02/02 07:52:52;;;;;;;15.35;7.45;;;;;;;;;;2115093;28;20144;-46
2022/02/02 07:53:56;;;;;;;16.25;7.28;;;;;;;;;;2111935;28;20516;-45
2022/02/02 07:55:10;;;;;;;20.65;8.18;;;;;;;;;;2115351;28;20453;-53
2022/02/02 07:56:14;;;;;;;19.95;7.75;;;;;;;;;;2113829;28;20135;-54
2022/02/02 07:57:16;;;;;;;18.13;7.90;;;;;;;;;;2112986;28;20044;-54
2022/02/02 07:58:20;;;;;;;15.63;7.10;;;;;;;;;;2115323;28;20211;-54
2022/02/02 07:59:29;;;;;;;16.90;7.80;;;;;;;;;;2111985;28;20044;-54
2022/02/02 08:00:31;;;;;;;15.32;7.20;;;;;;;;;;2115198;28;20122;-54
2022/02/02 08:01:32;;;;;;;16.73;7.20;;;;;;;;;;2108921;28;20048;-54
2022/02/02 08:02:46;;;;;;;18.77;7.13;;;;;;;;;;2112038;28;20465;-53
2022/02/02 08:03:54;;;;;;;20.35;7.60;;;;;;;;;;2115121;28;20180;-54
2022/02/02 08:04:55;;;;;;;19.50;7.80;;;;;;;;;;2112831;28;20036;-54
2022/02/02 08:05:59;;;;;;;18.73;8.18;;;;;;;;;;2114085;28;20075;-53
2022/02/02 08:07:00;;;;;;;20.88;8.05;;;;;;;;;;2114915;28;20051;-53
2022/02/02 08:08:12;;;;;;;22.08;8.48;;;;;;;;;;2113180;28;20128;-54
2022/02/02 08:09:22;;;;;;;16.45;7.75;;;;;;;;;;2115050;28;20432;-54
2022/02/02 08:10:25;;;;;;;20.33;7.55;;;;;;;;;;2112346;28;20043;-54
2022/02/02 08:11:29;;;;;;;20.52;8.10;;;;;;;;;;2112602;28;20134;-54
2022/02/02 08:12:55;;;;;;;17.73;8.40;;;;;;;;;;2114240;28;20054;-55
2022/02/02 08:13:59;;;;;;;23.33;7.95;;;;;;;;;;2111115;28;20040;-53
2022/02/02 08:15:00;;;;;;;19.48;9.52;;;;;;;;;;2115084;28;20109;-52
2022/02/02 08:16:05;;;;;;;21.48;9.52;;;;;;;;;;2113600;28;20040;-54
2022/02/02 08:17:06;;;;;;;20.60;9.77;;;;;;;;;;2112993;28;20075;-48
2022/02/02 08:18:08;;;;;;;22.67;9.10;;;;;;;;;;2114891;28;20048;-48
2022/02/02 08:19:09;;;;;;;21.90;8.25;;;;;;;;;;2111858;28;20129;-45
2022/02/02 08:20:10;;;;;;;23.52;9.50;;;;;;;;;;2106516;28;20087;-48
2022/02/02 08:21:11;;;;;;;20.98;8.75;;;;;;;;;;2115046;28;20124;-48
2022/02/02 08:22:13;;;;;;;16.17;8.48;;;;;;;;;;2110244;28;20134;-48
2022/02/02 08:23:14;;;;;;;18.23;7.88;;;;;;;;;;2106480;28;20135;-45
2022/02/02 08:24:17;;;;;;;16.35;7.95;;;;;;;;;;2107264;28;20565;-49
2022/02/02 08:25:25;;;;;;;17.45;8.38;;;;;;;;;;2111245;28;20089;-54
2022/02/02 08:26:27;;;;;;;21.48;9.93;;;;;;;;;;2114870;28;20493;-52
2022/02/02 08:27:27;;;;;;;22.40;9.88;;;;;;;;;;2113266;28;20070;-53
2022/02/02 08:28:29;;;;;;;15.32;8.30;;;;;;;;;;2114873;28;20047;-54
2022/02/02 08:29:31;;;;;;;24.05;9.77;;;;;;;;;;2114812;28;20184;-54
2022/02/02 08:30:32;;;;;;;;;;;;;;;;;;2110929;28;20051;-54
2022/02/02 08:31:33;;;;;;;18.80;8.15;;;;;;;;;;2114737;28;19999;-54
2022/02/02 08:32:41;;;;;;;21.33;8.57;;;;;;;;;;2115334;28;20139;-54
2022/02/02 08:33:47;;;;;;;19.58;8.27;;;;;;;;;;2111234;28;20472;-53
2022/02/02 08:34:51;;;;;;;15.48;7.57;;;;;;;;;;2115068;28;20051;-52
2022/02/02 08:35:54;;;;;;;20.02;8.38;;;;;;;;;;2111250;28;20147;-53
2022/02/02 08:36:56;;;;;;;26.45;9.60;;;;;;;;;;2106270;28;20489;-54
2022/02/02 08:38:05;;;;;;;20.75;8.88;;;;;;;;;;2106419;28;20146;-53
2022/02/02 08:39:22;;;;;;;28.67;10.77;;;;;;;;;;2109772;28;20188;-54
2022/02/02 08:40:28;;;;;;;20.83;9.75;;;;;;;;;;2114885;28;20073;-53
2022/02/02 08:41:32;;;;;;;22.08;10.00;;;;;;;;;;2112681;28;20071;-51
2022/02/02 08:42:36;;;;;;;22.45;9.77;;;;;;;;;;2114642;28;20082;-52
2022/02/02 08:43:41;;;;;;;22.70;9.55;;;;;;;;;;2114915;28;20113;-54
2022/02/02 08:44:48;;;;;;;29.17;13.05;;;;;;;;;;2108446;28;20134;-54
2022/02/02 08:45:50;;;;;;;25.08;7.97;;;;;;;;;;2106717;28;20076;-53
2022/02/02 08:46:58;;;;;;;22.58;9.73;;;;;;;;;;2107921;28;20050;-54
2022/02/02 08:48:03;;;;;;;26.08;11.60;;;;;;;;;;2106627;28;20064;-54
2022/02/02 08:49:07;;;;;;;20.60;10.13;;;;;;;;;;2106155;28;20079;-54
2022/02/02 08:50:09;;;;;;;33.33;13.25;;;;;;;;;;2109460;28;20059;-54
2022/02/02 08:51:13;;;;;;;26.20;11.18;;;;;;;;;;2115039;28;20051;-46
2022/02/02 08:52:15;;;;;;;37.70;16.73;;;;;;;;;;2115231;28;20051;-45
2022/02/02 08:53:30;;;;;;;35.30;14.38;;;;;;;;;;2107147;28;20520;-47
2022/02/02 08:54:44;;;;;;;32.53;12.18;;;;;;;;;;2106406;28;20127;-46
2022/02/02 08:57:27;;;;;;;35.33;14.18;;;;;;;;;;2088705;28;20076;-55
2022/02/02 08:58:33;;;;;;;39.67;15.80;;;;;;;;;;2083607;28;20085;-54
2022/02/02 08:59:47;;;;;;;21.38;8.82;;;;;;;;;;2106411;28;20075;-55
2022/02/02 09:00:51;;;;;;;35.25;15.45;;;;;;;;;;2108076;28;20047;-55
2022/02/02 09:01:53;;;;;;;24.55;10.95;;;;;;;;;;2107031;28;20083;-55
2022/02/02 09:05:18;;;;;;;34.28;12.10;;;;;;;;;;2106228;28;20130;-56
2022/02/02 09:05:35;;;;;;;26.15;12.50;;;;;;;;;;2114704;28;20504;-54